createdAt,value
2018-03-22T00:03:56.537Z,2.05
2018-03-22T00:08:59.011Z,1.90
2018-03-22T00:14:01.535Z,2.05
2018-03-22T00:19:04.049Z,1.93
2018-03-22T00:24:06.519Z,1.81
2018-03-22T00:29:09.000Z,1.82
2018-03-22T00:34:11.527Z,1.92
2018-03-22T00:39:14.151Z,1.93
2018-03-22T00:44:16.633Z,1.81
2018-03-22T00:49:19.184Z,1.91
2018-03-22T00:54:21.691Z,1.97
2018-03-22T00:59:24.192Z,1.87
2018-03-22T01:04:26.648Z,1.85
2018-03-22T01:09:29.117Z,1.90
2018-03-22T01:14:31.589Z,2.00
2018-03-22T01:19:34.066Z,2.16
2018-03-22T01:24:37.422Z,2.11
2018-03-22T01:29:40.035Z,2.05
2018-03-22T01:34:42.674Z,1.96
2018-03-22T01:39:46.094Z,1.99
2018-03-22T01:44:48.585Z,2.02
2018-03-22T01:49:51.068Z,1.86
2018-03-22T01:54:53.555Z,1.78
2018-03-22T01:59:56.006Z,1.78
2018-03-22T02:04:58.476Z,1.84
2018-03-22T02:10:00.990Z,1.64
2018-03-22T02:15:03.436Z,1.64
2018-03-22T02:20:05.920Z,1.68
2018-03-22T02:25:08.393Z,1.61
2018-03-22T02:30:10.860Z,1.51
2018-03-22T02:35:13.338Z,1.55
2018-03-22T02:40:16.215Z,1.45
2018-03-22T02:45:18.792Z,1.48
2018-03-22T02:50:21.308Z,1.34
2018-03-22T02:55:23.793Z,1.46
2018-03-22T03:00:26.324Z,1.31
2018-03-22T03:05:28.751Z,1.40
2018-03-22T03:10:31.193Z,1.26
2018-03-22T03:15:33.655Z,1.26
2018-03-22T03:20:36.127Z,1.23
2018-03-22T03:25:38.602Z,1.34
2018-03-22T03:30:41.056Z,1.52
2018-03-22T03:35:43.620Z,1.48
2018-03-22T03:40:46.152Z,1.44
2018-03-22T03:45:48.921Z,1.39
2018-03-22T03:50:51.558Z,1.39
2018-03-22T03:55:54.049Z,1.46
2018-03-22T04:00:56.512Z,1.64
2018-03-22T04:05:58.980Z,1.54
2018-03-22T04:11:01.534Z,1.48
2018-03-22T04:16:04.016Z,1.62
2018-03-22T04:21:06.488Z,1.57
2018-03-22T04:26:08.941Z,1.60
2018-03-22T04:31:11.422Z,1.67
2018-03-22T04:36:14.194Z,1.69
2018-03-22T04:41:16.752Z,1.62
2018-03-22T04:46:19.243Z,1.57
2018-03-22T04:51:21.744Z,1.56
2018-03-22T04:56:24.219Z,1.60
2018-03-22T05:01:26.718Z,1.49
2018-03-22T05:06:29.195Z,1.54
2018-03-22T05:11:31.679Z,1.50
2018-03-22T05:16:34.167Z,1.54
2018-03-22T05:21:36.685Z,1.56
2018-03-22T05:26:39.154Z,1.62
2018-03-22T05:31:41.680Z,1.60
2018-03-22T05:36:44.173Z,1.79
2018-03-22T05:41:46.781Z,1.79
2018-03-22T05:46:49.298Z,1.83
2018-03-22T05:51:51.952Z,1.78
2018-03-22T05:56:54.428Z,1.78
2018-03-22T06:01:56.914Z,1.88
2018-03-22T06:06:59.408Z,2.06
2018-03-22T06:12:01.967Z,2.18
2018-03-22T06:17:04.916Z,2.31
2018-03-22T06:22:07.514Z,2.40
2018-03-22T06:27:09.998Z,2.31
2018-03-22T06:32:12.497Z,2.44
2018-03-22T06:37:15.001Z,2.45
2018-03-22T06:42:17.516Z,2.51
2018-03-22T06:47:20.064Z,2.51
2018-03-22T06:52:22.601Z,2.35
2018-03-22T06:57:25.277Z,2.31
2018-03-22T07:02:27.769Z,2.41
2018-03-22T07:07:30.243Z,2.29
2018-03-22T07:12:32.715Z,2.11
2018-03-22T07:17:35.235Z,1.93
2018-03-22T07:22:37.725Z,1.84
2018-03-22T07:27:40.196Z,1.78
2018-03-22T07:32:42.655Z,1.71
2018-03-22T07:37:45.952Z,1.72
2018-03-22T07:42:53.985Z,1.61
2018-03-22T07:47:56.451Z,1.73
2018-03-22T07:52:58.915Z,2.06
2018-03-22T07:58:01.499Z,2.18
2018-03-22T08:03:03.977Z,2.08
2018-03-22T08:08:06.488Z,2.14
2018-03-22T08:13:08.995Z,1.92
2018-03-22T08:18:11.468Z,1.90
2018-03-22T08:23:13.956Z,1.90
2018-03-22T08:28:16.516Z,1.82
2018-03-22T08:33:19.097Z,1.70
2018-03-22T08:38:21.650Z,1.70
2018-03-22T08:43:24.182Z,1.58
2018-03-22T08:48:26.664Z,1.64
2018-03-22T08:53:29.147Z,1.83
2018-03-22T08:58:31.646Z,1.69
2018-03-22T09:03:34.151Z,1.94
2018-03-22T09:08:36.846Z,2.02
2018-03-22T09:13:39.783Z,2.09
2018-03-22T09:18:42.324Z,1.93
2018-03-22T09:23:44.831Z,1.83
2018-03-22T09:28:47.413Z,1.79
2018-03-22T09:33:50.063Z,1.56
2018-03-22T09:38:52.544Z,1.50
2018-03-22T09:43:55.039Z,1.47
2018-03-22T09:48:57.520Z,1.51
2018-03-22T09:53:59.975Z,1.64
2018-03-22T09:59:02.446Z,1.77
2018-03-22T10:04:04.937Z,1.74
2018-03-22T10:09:08.256Z,1.85
2018-03-22T10:14:10.753Z,1.97
2018-03-22T10:19:13.252Z,2.16
2018-03-22T10:24:16.395Z,2.34
2018-03-22T10:29:18.967Z,2.27
2018-03-22T10:34:21.439Z,2.21
2018-03-22T10:39:24.719Z,2.15
2018-03-22T10:44:27.190Z,2.23
2018-03-22T10:49:29.645Z,2.31
2018-03-22T10:54:32.088Z,2.70
2018-03-22T10:59:34.717Z,2.67
2018-03-22T11:04:37.214Z,2.52
2018-03-22T11:09:39.921Z,2.62
2018-03-22T11:14:42.400Z,2.68
2018-03-22T11:19:44.941Z,3.02
2018-03-22T11:24:47.536Z,3.12
2018-03-22T11:29:50.237Z,3.07
2018-03-22T11:34:52.749Z,3.10
2018-03-22T11:39:55.214Z,2.92
2018-03-22T11:44:57.690Z,3.00
2018-03-22T11:50:00.157Z,3.09
2018-03-22T11:55:02.638Z,3.03
2018-03-22T12:00:05.524Z,3.08
2018-03-22T12:05:08.445Z,3.26
2018-03-22T12:10:11.421Z,3.13
2018-03-22T12:15:16.954Z,3.21
2018-03-22T12:20:22.272Z,3.27
2018-03-22T12:25:24.792Z,3.35
2018-03-22T12:30:27.260Z,3.36
2018-03-22T12:35:29.977Z,3.32
2018-03-22T12:40:32.467Z,3.28
2018-03-22T12:45:34.958Z,3.49
2018-03-22T12:50:37.641Z,3.56
2018-03-22T12:55:40.346Z,3.51
2018-03-22T13:00:44.567Z,3.62
2018-03-22T13:05:47.090Z,3.52
2018-03-22T13:10:49.587Z,3.58
2018-03-22T13:15:52.684Z,3.62
2018-03-22T13:20:55.207Z,3.74
2018-03-22T13:25:57.683Z,3.82
2018-03-22T13:31:00.146Z,3.95
2018-03-22T13:36:02.624Z,3.97
2018-03-22T13:41:05.175Z,3.89
2018-03-22T13:46:07.690Z,3.91
2018-03-22T13:51:10.161Z,3.90
2018-03-22T13:56:12.633Z,3.91
2018-03-22T14:01:15.492Z,3.90
2018-03-22T14:06:18.059Z,3.98
2018-03-22T14:11:20.550Z,4.03
2018-03-22T14:16:23.805Z,4.03
2018-03-22T14:21:26.515Z,4.05
2018-03-22T14:26:28.996Z,4.11
2018-03-22T14:31:36.423Z,4.10
2018-03-22T14:36:39.141Z,4.10
2018-03-22T14:41:41.763Z,4.06
2018-03-22T14:46:45.025Z,4.01
2018-03-22T14:51:47.690Z,4.09
2018-03-22T14:56:50.219Z,4.23
2018-03-22T15:01:54.776Z,4.15
2018-03-22T15:06:58.502Z,4.12
2018-03-22T15:12:03.794Z,4.08
2018-03-22T15:17:09.310Z,4.10
2018-03-22T15:22:12.108Z,4.01
2018-03-22T15:27:14.904Z,3.95
2018-03-22T15:32:17.484Z,4.04
2018-03-22T15:37:20.003Z,4.05
2018-03-22T15:42:22.978Z,3.95
2018-03-22T15:47:25.445Z,3.92
2018-03-22T15:52:28.075Z,3.77
2018-03-22T15:57:31.118Z,3.79
2018-03-22T16:02:33.657Z,3.72
2018-03-22T16:07:36.171Z,3.74
2018-03-22T16:12:40.975Z,3.84
2018-03-22T16:17:47.619Z,3.65
2018-03-22T16:22:52.715Z,3.58
2018-03-22T16:27:56.998Z,3.64
2018-03-22T16:33:01.961Z,3.59
2018-03-22T16:38:07.271Z,3.66
2018-03-22T16:43:10.807Z,3.53
2018-03-22T16:48:15.371Z,3.53
2018-03-22T16:53:19.280Z,3.53
2018-03-22T16:58:24.307Z,3.53
2018-03-22T17:03:28.375Z,3.46
2018-03-22T17:08:33.162Z,3.45
2018-03-22T17:13:38.812Z,3.42
2018-03-22T17:18:41.946Z,3.42
2018-03-22T17:23:44.811Z,3.36
2018-03-22T17:28:47.344Z,3.41
2018-03-22T17:33:49.910Z,3.38
2018-03-22T17:38:52.432Z,3.32
2018-03-22T17:43:54.941Z,3.25
2018-03-22T17:48:57.466Z,3.32
2018-03-22T17:53:59.915Z,3.32
2018-03-22T17:59:02.435Z,3.37
2018-03-22T18:04:04.911Z,3.38
2018-03-22T18:09:08.496Z,3.33
2018-03-22T18:14:11.344Z,3.40
2018-03-22T18:19:14.117Z,3.44
2018-03-22T18:24:17.172Z,3.39
2018-03-22T18:29:20.162Z,3.38
2018-03-22T18:34:22.644Z,3.40
2018-03-22T18:39:25.133Z,3.48
2018-03-22T18:44:27.653Z,3.52
2018-03-22T18:49:30.134Z,3.51
2018-03-22T18:54:32.700Z,3.55
2018-03-22T18:59:39.148Z,3.51
2018-03-22T19:04:41.897Z,3.51
2018-03-22T19:09:45.322Z,3.58
2018-03-22T19:14:48.948Z,3.54
2018-03-22T19:19:51.728Z,3.70
2018-03-22T19:24:54.217Z,3.73
2018-03-22T19:29:56.735Z,3.69
2018-03-22T19:34:59.207Z,3.69
2018-03-22T19:40:01.716Z,3.72
2018-03-22T19:45:04.219Z,3.70
2018-03-22T19:50:06.717Z,3.74
2018-03-22T19:55:09.458Z,4.04
2018-03-22T20:00:11.949Z,4.19
2018-03-22T20:05:14.471Z,4.37
2018-03-22T20:10:19.023Z,4.47
2018-03-22T20:15:27.660Z,4.62
2018-03-22T20:20:35.205Z,4.67
2018-03-22T20:25:43.309Z,4.59
2018-03-22T20:30:52.322Z,4.55
2018-03-22T20:35:58.969Z,4.55
2018-03-22T20:41:03.607Z,4.68
2018-03-22T20:46:07.926Z,4.82
2018-03-22T20:51:12.762Z,4.79
2018-03-22T20:56:17.070Z,4.70
2018-03-22T21:01:22.680Z,4.66
2018-03-22T21:06:28.785Z,4.78
2018-03-22T21:11:33.098Z,4.62
2018-03-22T21:16:37.024Z,4.74
2018-03-22T21:21:45.165Z,4.76
2018-03-22T21:26:50.025Z,4.68
2018-03-22T21:31:52.924Z,4.73
2018-03-22T21:36:55.404Z,4.70
2018-03-22T21:42:06.460Z,4.80
2018-03-22T21:47:20.805Z,4.70
2018-03-22T21:52:35.365Z,4.69
2018-03-22T21:57:37.856Z,4.72
2018-03-22T22:02:40.372Z,4.73
2018-03-22T22:07:42.866Z,4.62
2018-03-22T22:12:45.419Z,4.67
2018-03-22T22:17:48.018Z,4.68
2018-03-22T22:22:50.547Z,4.83
2018-03-22T22:27:53.070Z,4.73
2018-03-22T22:32:55.565Z,4.85
2018-03-22T22:37:58.025Z,4.81
2018-03-22T22:43:01.120Z,4.88
2018-03-22T22:48:03.605Z,4.78
2018-03-22T22:53:06.118Z,4.69
2018-03-22T22:58:08.592Z,4.65
2018-03-22T23:03:11.098Z,4.59
2018-03-22T23:08:13.652Z,4.68
2018-03-22T23:13:16.161Z,4.55
2018-03-22T23:18:18.663Z,4.58
2018-03-22T23:23:21.174Z,4.61
2018-03-22T23:28:23.688Z,4.62
2018-03-22T23:33:26.138Z,4.60
2018-03-22T23:38:29.029Z,4.60
2018-03-22T23:43:31.583Z,4.54
2018-03-22T23:48:34.040Z,4.51
2018-03-22T23:53:37.498Z,4.50
2018-03-22T23:58:39.962Z,4.50
